createdAt,value
2022-11-16T00:01:41.742Z,28.20
2022-11-16T00:04:09.544Z,26.27
2022-11-16T00:06:36.048Z,27.88
2022-11-16T00:09:22.007Z,29.27
2022-11-16T00:11:51.113Z,30.70
2022-11-16T00:14:18.821Z,29.67
2022-11-16T00:16:45.243Z,28.55
2022-11-16T00:19:12.332Z,27.00
2022-11-16T00:21:38.913Z,27.90
2022-11-16T00:24:06.054Z,27.02
2022-11-16T00:26:32.512Z,27.92
2022-11-16T00:28:59.193Z,29.15
2022-11-16T00:31:25.613Z,27.08
2022-11-16T00:33:52.160Z,26.52
2022-11-16T00:36:19.036Z,27.98
2022-11-16T00:38:45.965Z,26.30
2022-11-16T00:41:12.493Z,26.80
2022-11-16T00:43:39.035Z,26.08
2022-11-16T00:46:05.796Z,27.92
2022-11-16T00:48:32.688Z,26.20
2022-11-16T00:50:59.292Z,25.95
2022-11-16T00:53:25.887Z,24.98
2022-11-16T00:55:52.275Z,24.73
2022-11-16T00:58:18.684Z,24.42
2022-11-16T01:00:45.150Z,24.45
2022-11-16T01:03:11.996Z,25.25
2022-11-16T01:05:38.869Z,26.20
2022-11-16T01:08:05.850Z,25.08
2022-11-16T01:10:32.311Z,24.65
2022-11-16T01:12:58.830Z,24.92
2022-11-16T01:15:27.374Z,24.63
2022-11-16T01:17:55.582Z,24.88
2022-11-16T01:20:24.812Z,23.60
2022-11-16T01:22:52.027Z,25.38
2022-11-16T01:25:19.209Z,25.10
2022-11-16T01:27:45.940Z,24.88
2022-11-16T01:30:14.504Z,25.35
2022-11-16T01:32:40.975Z,24.17
2022-11-16T01:35:07.753Z,26.00
2022-11-16T01:37:34.382Z,24.10
2022-11-16T01:40:00.894Z,25.42
2022-11-16T01:42:29.518Z,23.58
2022-11-16T01:45:21.509Z,24.17
2022-11-16T01:50:17.156Z,23.95
2022-11-16T01:52:53.002Z,23.80
2022-11-16T01:55:20.901Z,23.38
2022-11-16T01:57:48.746Z,24.77
2022-11-16T02:00:16.185Z,23.52
2022-11-16T02:02:42.618Z,23.58
2022-11-16T02:05:11.131Z,23.33
2022-11-16T02:08:36.774Z,23.73
2022-11-16T02:11:37.864Z,22.20
2022-11-16T02:14:04.211Z,23.17
2022-11-16T02:16:48.233Z,23.08
2022-11-16T02:19:49.880Z,23.60
2022-11-16T02:22:40.639Z,23.70
2022-11-16T02:25:17.055Z,23.10
2022-11-16T02:28:16.503Z,22.58
2022-11-16T02:30:47.101Z,23.50
2022-11-16T02:33:18.003Z,23.02
2022-11-16T02:35:50.001Z,23.42
2022-11-16T02:38:24.227Z,23.67
2022-11-16T02:40:55.860Z,23.73
2022-11-16T02:45:56.998Z,22.63
2022-11-16T02:48:28.698Z,22.70
2022-11-16T02:53:24.406Z,24.13
2022-11-16T02:55:51.348Z,24.83
2022-11-16T02:58:21.309Z,27.20
2022-11-16T03:00:58.814Z,25.55
2022-11-16T03:03:42.257Z,24.30
2022-11-16T03:06:22.820Z,25.08
2022-11-16T03:08:55.146Z,25.95
2022-11-16T03:11:40.203Z,24.88
2022-11-16T03:14:11.771Z,27.55
2022-11-16T03:19:16.906Z,28.38
2022-11-16T03:21:50.965Z,26.83
2022-11-16T03:24:17.607Z,27.60
2022-11-16T03:26:55.713Z,26.73
2022-11-16T03:29:32.691Z,27.08
2022-11-16T03:32:20.959Z,27.23
2022-11-16T03:34:59.625Z,26.65
2022-11-16T03:37:26.480Z,27.90
2022-11-16T03:39:53.949Z,27.38
2022-11-16T03:42:22.855Z,30.05
2022-11-16T03:44:50.208Z,27.40
2022-11-16T03:47:16.665Z,30.10
2022-11-16T03:49:47.573Z,29.63
2022-11-16T03:52:16.719Z,30.15
2022-11-16T03:54:43.172Z,30.52
2022-11-16T03:57:15.377Z,30.45
2022-11-16T03:59:43.228Z,31.48
2022-11-16T04:02:09.878Z,30.45
2022-11-16T04:04:54.813Z,31.42
2022-11-16T04:07:39.519Z,31.48
2022-11-16T04:10:24.919Z,30.30
2022-11-16T04:13:09.999Z,30.40
2022-11-16T04:15:54.733Z,31.10
2022-11-16T04:18:39.433Z,32.17
2022-11-16T04:21:24.756Z,32.10
2022-11-16T04:24:10.001Z,33.10
2022-11-16T04:26:57.952Z,32.70
2022-11-16T04:29:25.178Z,32.58
2022-11-16T04:32:09.934Z,35.03
2022-11-16T04:34:54.623Z,33.25
2022-11-16T04:37:39.959Z,35.08
2022-11-16T04:40:07.189Z,34.22
2022-11-16T04:42:33.612Z,34.83
2022-11-16T04:45:18.588Z,33.58
2022-11-16T04:47:45.182Z,33.75
2022-11-16T04:50:12.418Z,33.78
2022-11-16T04:52:38.828Z,35.67
2022-11-16T04:55:05.721Z,34.70
2022-11-16T04:57:32.124Z,36.30
2022-11-16T04:59:58.597Z,39.10
2022-11-16T05:02:24.999Z,35.38
2022-11-16T05:04:51.388Z,36.60
2022-11-16T05:07:17.882Z,36.20
2022-11-16T05:09:46.733Z,38.40
2022-11-16T05:12:15.881Z,38.88
2022-11-16T05:14:42.974Z,38.03
2022-11-16T05:17:09.776Z,37.00
2022-11-16T05:19:55.222Z,38.28
2022-11-16T05:22:21.974Z,39.20
2022-11-16T05:24:48.455Z,38.92
2022-11-16T05:27:17.309Z,38.80
2022-11-16T05:29:44.308Z,37.90
2022-11-16T05:32:12.358Z,35.70
2022-11-16T05:34:39.199Z,36.80
2022-11-16T05:37:05.620Z,37.88
2022-11-16T05:39:32.086Z,37.50
2022-11-16T05:41:58.535Z,39.15
2022-11-16T05:44:25.343Z,37.65
2022-11-16T05:46:52.444Z,35.58
2022-11-16T05:49:19.034Z,37.78
2022-11-16T05:51:46.808Z,39.13
2022-11-16T05:54:21.170Z,37.67
2022-11-16T05:56:49.534Z,37.85
2022-11-16T05:59:17.650Z,38.08
2022-11-16T06:01:44.153Z,39.38
2022-11-16T06:04:11.571Z,38.85
2022-11-16T06:06:38.482Z,37.95
2022-11-16T06:09:05.501Z,39.15
2022-11-16T06:11:35.835Z,39.20
2022-11-16T06:14:03.428Z,38.42
2022-11-16T06:16:30.179Z,41.35
2022-11-16T06:18:56.619Z,41.03
2022-11-16T06:21:23.321Z,38.72
2022-11-16T06:23:49.794Z,39.25
2022-11-16T06:26:16.291Z,40.72
2022-11-16T06:28:42.730Z,40.63
2022-11-16T06:31:09.185Z,41.05
2022-11-16T06:33:35.755Z,40.75
2022-11-16T06:36:02.244Z,40.45
2022-11-16T06:38:29.054Z,42.05
2022-11-16T06:40:58.501Z,41.65
2022-11-16T06:43:25.987Z,39.92
2022-11-16T06:45:55.092Z,41.53
2022-11-16T06:48:22.557Z,39.95
2022-11-16T06:50:50.195Z,42.28
2022-11-16T06:53:17.742Z,36.97
2022-11-16T06:55:44.452Z,37.60
2022-11-16T06:58:10.998Z,42.25
2022-11-16T07:00:37.679Z,38.60
2022-11-16T07:03:04.495Z,36.53
2022-11-16T07:05:31.935Z,37.33
2022-11-16T07:07:58.436Z,35.03
2022-11-16T07:10:25.539Z,34.65
2022-11-16T07:12:51.990Z,37.25
2022-11-16T07:15:19.440Z,35.75
2022-11-16T07:17:45.877Z,34.72
2022-11-16T07:20:12.395Z,34.47
2022-11-16T07:22:38.832Z,33.80
2022-11-16T07:25:05.776Z,35.42
2022-11-16T07:27:32.178Z,32.80
2022-11-16T07:29:58.745Z,32.25
2022-11-16T07:32:25.169Z,32.28
2022-11-16T07:34:51.559Z,31.02
2022-11-16T07:37:17.997Z,33.28
2022-11-16T07:39:45.623Z,32.15
2022-11-16T07:42:12.268Z,33.03
2022-11-16T07:44:39.185Z,30.08
2022-11-16T07:47:06.975Z,33.35
2022-11-16T07:49:33.365Z,29.88
2022-11-16T07:51:59.816Z,34.00
2022-11-16T07:54:26.234Z,32.08
2022-11-16T07:56:52.641Z,32.97
2022-11-16T07:59:19.058Z,32.83
2022-11-16T08:01:47.700Z,32.35
2022-11-16T08:04:15.433Z,32.45
2022-11-16T08:06:41.893Z,31.80
2022-11-16T08:09:09.340Z,31.73
2022-11-16T08:11:35.826Z,31.63
2022-11-16T08:14:02.323Z,33.55
2022-11-16T08:16:28.838Z,32.30
2022-11-16T08:18:55.308Z,31.42
2022-11-16T08:21:21.785Z,31.15
2022-11-16T08:23:48.766Z,31.27
2022-11-16T08:26:18.179Z,30.45
2022-11-16T08:28:47.151Z,31.00
2022-11-16T08:31:16.545Z,31.17
2022-11-16T08:33:43.191Z,30.45
2022-11-16T08:36:14.348Z,30.48
2022-11-16T08:38:41.090Z,28.33
2022-11-16T08:41:07.723Z,30.63
2022-11-16T08:43:35.740Z,27.25
2022-11-16T08:46:02.455Z,26.80
2022-11-16T08:48:28.883Z,26.02
2022-11-16T08:51:16.373Z,27.42
2022-11-16T08:53:41.728Z,23.98
2022-11-16T08:56:15.024Z,24.67
2022-11-16T08:58:46.951Z,24.95
2022-11-16T09:01:19.221Z,27.92
2022-11-16T09:03:46.481Z,25.80
2022-11-16T09:06:13.463Z,25.48
2022-11-16T09:08:41.175Z,27.73
2022-11-16T09:11:12.353Z,27.10
2022-11-16T09:13:38.807Z,25.83
2022-11-16T09:16:06.121Z,27.15
2022-11-16T09:18:32.924Z,27.48
2022-11-16T09:20:59.828Z,23.92
2022-11-16T09:23:26.346Z,26.63
2022-11-16T09:25:53.466Z,25.08
2022-11-16T09:28:21.591Z,25.30
2022-11-16T09:30:50.717Z,24.85
2022-11-16T09:33:17.199Z,23.98
2022-11-16T09:35:43.966Z,24.45
2022-11-16T09:38:12.668Z,24.38
2022-11-16T09:40:46.208Z,24.15
2022-11-16T09:43:47.057Z,24.73
2022-11-16T09:46:30.108Z,25.42
2022-11-16T09:48:58.867Z,25.33
2022-11-16T09:51:29.450Z,22.55
2022-11-16T09:54:02.302Z,24.08
2022-11-16T09:56:31.238Z,25.40
2022-11-16T09:59:19.460Z,24.48
2022-11-16T10:02:16.824Z,24.42
2022-11-16T10:04:52.492Z,25.35
2022-11-16T10:07:27.781Z,24.88
2022-11-16T10:09:56.077Z,24.67
2022-11-16T10:12:37.885Z,23.77
2022-11-16T10:17:57.643Z,26.10
2022-11-16T10:20:42.050Z,24.20
2022-11-16T10:23:24.849Z,23.55
2022-11-16T10:26:03.423Z,24.65
2022-11-16T10:28:57.458Z,24.83
2022-11-16T10:31:42.014Z,25.17
2022-11-16T10:34:13.956Z,25.48
2022-11-16T10:36:40.477Z,25.13
2022-11-16T10:39:13.385Z,24.90
2022-11-16T10:41:46.900Z,24.55
2022-11-16T10:44:27.201Z,24.50
2022-11-16T10:47:02.633Z,24.20
2022-11-16T10:49:39.954Z,24.90
2022-11-16T10:52:06.519Z,26.75
2022-11-16T10:54:32.948Z,25.48
2022-11-16T10:57:13.983Z,25.55
2022-11-16T10:59:49.941Z,25.77
2022-11-16T11:02:34.495Z,28.00
2022-11-16T11:05:21.246Z,25.60
2022-11-16T11:07:59.868Z,26.13
2022-11-16T11:10:30.080Z,25.13
2022-11-16T11:13:10.613Z,26.00
2022-11-16T11:15:41.361Z,24.55
2022-11-16T11:18:23.150Z,24.90
2022-11-16T11:26:05.069Z,25.08
2022-11-16T11:28:32.828Z,25.17
2022-11-16T11:31:03.760Z,26.20
2022-11-16T11:33:35.164Z,23.42
2022-11-16T11:36:18.700Z,25.95
2022-11-16T11:39:06.798Z,23.65
2022-11-16T11:42:04.477Z,25.48
2022-11-16T11:45:02.465Z,25.15
2022-11-16T11:48:06.978Z,23.40
2022-11-16T11:50:44.499Z,23.98
2022-11-16T11:53:37.104Z,22.83
2022-11-16T11:56:03.952Z,22.83
2022-11-16T11:58:33.905Z,21.45
2022-11-16T12:01:24.875Z,23.92
2022-11-16T12:04:21.921Z,23.30
2022-11-16T12:07:07.589Z,21.75
2022-11-16T12:09:36.816Z,27.17
2022-11-16T12:12:22.801Z,24.27
2022-11-16T12:14:58.249Z,24.33
2022-11-16T12:17:40.865Z,23.42
2022-11-16T12:20:27.059Z,22.00
2022-11-16T12:22:59.742Z,21.48
2022-11-16T12:25:30.034Z,24.08
2022-11-16T12:28:19.880Z,21.90
2022-11-16T12:31:14.798Z,22.77
2022-11-16T12:34:07.410Z,20.88
2022-11-16T12:37:05.716Z,19.85
2022-11-16T12:39:44.317Z,19.13
2022-11-16T12:42:17.697Z,20.60
2022-11-16T12:45:14.470Z,20.30
2022-11-16T12:47:49.686Z,20.58
2022-11-16T12:50:44.858Z,18.83
2022-11-16T12:53:26.920Z,20.38
2022-11-16T12:56:22.662Z,19.50
2022-11-16T12:59:26.188Z,18.90
2022-11-16T13:02:00.350Z,18.50
2022-11-16T13:04:40.936Z,18.98
2022-11-16T13:07:32.888Z,20.52
2022-11-16T13:12:30.746Z,18.70
2022-11-16T13:14:59.986Z,20.15
2022-11-16T13:17:34.531Z,17.67
2022-11-16T13:20:19.833Z,17.77
2022-11-16T13:22:56.839Z,18.20
2022-11-16T13:25:48.879Z,17.20
2022-11-16T13:28:33.548Z,16.48
2022-11-16T13:31:55.743Z,17.80
2022-11-16T13:34:29.139Z,16.15
2022-11-16T13:36:55.590Z,17.27
2022-11-16T13:40:04.945Z,23.45
2022-11-16T13:42:34.097Z,18.85
2022-11-16T13:45:18.176Z,17.20
2022-11-16T13:47:56.754Z,15.23
2022-11-16T13:50:35.967Z,16.88
2022-11-16T13:56:07.493Z,15.13
2022-11-16T13:58:36.293Z,15.65
2022-11-16T14:01:08.724Z,16.27
2022-11-16T14:03:40.174Z,15.35
2022-11-16T14:06:29.258Z,16.67
2022-11-16T14:08:59.856Z,16.17
2022-11-16T14:11:33.659Z,16.40
2022-11-16T14:14:05.789Z,15.10
2022-11-16T14:16:44.424Z,15.15
2022-11-16T14:19:55.076Z,16.17
2022-11-16T14:22:35.195Z,14.80
2022-11-16T14:25:06.173Z,15.60
2022-11-16T14:27:48.748Z,16.27
2022-11-16T14:30:24.586Z,15.32
2022-11-16T14:32:54.601Z,14.88
2022-11-16T14:35:29.451Z,14.05
2022-11-16T14:38:06.157Z,13.95
2022-11-16T14:40:56.204Z,13.93
2022-11-16T14:43:30.064Z,14.20
2022-11-16T14:46:05.904Z,13.55
2022-11-16T14:48:32.494Z,15.45
2022-11-16T14:51:01.947Z,12.20
2022-11-16T14:53:29.603Z,13.15
2022-11-16T14:56:07.459Z,13.15
2022-11-16T14:58:33.901Z,13.20
2022-11-16T15:01:06.222Z,14.07
2022-11-16T15:04:03.520Z,12.23
2022-11-16T15:06:43.545Z,12.60
2022-11-16T15:09:33.136Z,12.20
2022-11-16T15:12:20.999Z,11.95
2022-11-16T15:14:51.910Z,11.68
2022-11-16T15:17:27.294Z,11.52
2022-11-16T15:19:59.189Z,10.82
2022-11-16T15:22:31.446Z,12.18
2022-11-16T15:25:00.498Z,10.20
2022-11-16T15:27:38.644Z,10.25
2022-11-16T15:30:16.911Z,10.38
2022-11-16T15:32:45.763Z,9.95
2022-11-16T15:35:21.576Z,10.70
2022-11-16T15:37:48.554Z,10.15
2022-11-16T15:40:15.286Z,9.50
2022-11-16T15:42:43.104Z,10.52
2022-11-16T15:45:20.901Z,9.93
2022-11-16T15:47:47.659Z,10.32
2022-11-16T15:50:23.081Z,9.70
2022-11-16T15:52:57.014Z,11.02
2022-11-16T15:55:32.159Z,17.13
2022-11-16T15:58:01.677Z,9.13
2022-11-16T16:00:29.890Z,10.02
2022-11-16T16:03:05.120Z,9.77
2022-11-16T16:05:39.695Z,8.80
2022-11-16T16:08:23.150Z,9.43
2022-11-16T16:11:24.011Z,10.23
2022-11-16T16:14:02.011Z,8.98
2022-11-16T16:16:39.041Z,9.23
2022-11-16T16:19:24.245Z,8.85
2022-11-16T16:21:51.508Z,9.43
2022-11-16T16:24:42.204Z,10.20
2022-11-16T16:27:20.043Z,8.90
2022-11-16T16:29:48.131Z,9.27
2022-11-16T16:32:31.056Z,9.15
2022-11-16T16:35:08.509Z,8.95
2022-11-16T16:37:38.498Z,8.90
2022-11-16T16:40:05.556Z,8.77
2022-11-16T16:42:32.013Z,9.27
2022-11-16T16:45:02.459Z,8.27
2022-11-16T16:47:28.953Z,8.38
2022-11-16T16:49:55.610Z,8.27
2022-11-16T16:52:22.047Z,8.77
2022-11-16T16:54:48.451Z,10.43
2022-11-16T16:57:16.744Z,9.80
2022-11-16T16:59:45.284Z,9.75
2022-11-16T17:02:12.442Z,8.75
2022-11-16T17:04:39.054Z,8.70
2022-11-16T17:07:05.733Z,9.02
2022-11-16T17:09:32.207Z,8.20
2022-11-16T17:11:58.668Z,9.27
2022-11-16T17:14:25.149Z,8.48
2022-11-16T17:16:51.955Z,9.05
2022-11-16T17:19:18.895Z,9.68
2022-11-16T17:21:45.779Z,9.02
2022-11-16T17:24:12.523Z,10.35
2022-11-16T17:26:40.474Z,9.73
2022-11-16T17:29:06.997Z,8.38
2022-11-16T17:31:33.485Z,9.32
2022-11-16T17:33:59.992Z,9.18
2022-11-16T17:36:26.406Z,7.65
2022-11-16T17:38:52.808Z,7.05
2022-11-16T17:41:21.719Z,8.10
2022-11-16T17:43:48.387Z,7.38
2022-11-16T17:46:17.777Z,6.70
2022-11-16T17:48:47.026Z,6.97
2022-11-16T17:51:16.263Z,6.13
2022-11-16T17:53:45.573Z,6.60
2022-11-16T17:56:17.596Z,7.45
2022-11-16T17:58:45.163Z,5.10
2022-11-16T18:01:12.289Z,5.85
2022-11-16T18:03:39.578Z,5.00
2022-11-16T18:06:35.039Z,4.82
2022-11-16T18:09:01.666Z,5.57
2022-11-16T18:11:28.857Z,5.03
2022-11-16T18:14:05.490Z,4.70
2022-11-16T18:16:33.322Z,4.75
2022-11-16T18:19:02.082Z,4.40
2022-11-16T18:21:29.587Z,5.10
2022-11-16T18:23:56.148Z,4.75
2022-11-16T18:26:24.015Z,4.72
2022-11-16T18:28:52.017Z,4.43
2022-11-16T18:31:20.790Z,4.53
2022-11-16T18:33:49.059Z,4.80
2022-11-16T18:36:16.746Z,4.35
2022-11-16T18:38:43.328Z,4.45
2022-11-16T18:41:12.778Z,4.68
2022-11-16T18:43:51.651Z,4.70
2022-11-16T18:46:23.975Z,4.05
2022-11-16T18:48:51.069Z,4.75
2022-11-16T18:51:19.318Z,4.32
2022-11-16T18:53:46.018Z,6.10
2022-11-16T18:56:12.836Z,5.10
2022-11-16T18:58:55.133Z,5.75
2022-11-16T19:01:24.358Z,3.90
2022-11-16T19:03:52.434Z,3.67
2022-11-16T19:06:19.486Z,4.07
2022-11-16T19:08:52.135Z,3.70
2022-11-16T19:11:22.544Z,4.05
2022-11-16T19:13:57.179Z,3.20
2022-11-16T19:16:24.686Z,3.88
2022-11-16T19:18:51.557Z,3.30
2022-11-16T19:21:18.688Z,3.15
2022-11-16T19:23:47.265Z,3.63
2022-11-16T19:26:15.869Z,3.55
2022-11-16T19:28:44.535Z,3.67
2022-11-16T19:31:13.622Z,3.05
2022-11-16T19:33:41.098Z,3.20
2022-11-16T19:36:13.502Z,2.92
2022-11-16T19:38:40.325Z,3.47
2022-11-16T19:41:08.218Z,4.25
2022-11-16T19:43:35.531Z,3.15
2022-11-16T19:46:05.013Z,3.25
2022-11-16T19:48:32.592Z,3.58
2022-11-16T19:51:09.970Z,3.13
2022-11-16T19:53:38.264Z,4.80
2022-11-16T19:56:06.692Z,4.22
2022-11-16T19:58:38.259Z,3.33
2022-11-16T20:01:07.069Z,3.42
2022-11-16T20:03:34.692Z,2.95
2022-11-16T20:06:08.728Z,3.35
2022-11-16T20:08:36.122Z,2.97
2022-11-16T20:11:13.630Z,3.25
2022-11-16T20:13:41.950Z,2.97
2022-11-16T20:16:11.085Z,2.50
2022-11-16T20:18:38.591Z,2.70
2022-11-16T20:21:06.027Z,2.70
2022-11-16T20:23:37.524Z,3.40
2022-11-16T20:26:09.235Z,3.05
2022-11-16T20:28:37.460Z,3.08
2022-11-16T20:31:07.470Z,2.90
2022-11-16T20:33:34.839Z,2.97
2022-11-16T20:36:05.919Z,2.85
2022-11-16T20:38:36.818Z,2.60
2022-11-16T20:41:09.323Z,4.57
2022-11-16T20:43:36.740Z,3.17
2022-11-16T20:46:03.373Z,4.03
2022-11-16T20:48:29.800Z,2.92
2022-11-16T20:50:56.328Z,3.20
2022-11-16T20:53:22.883Z,2.50
2022-11-16T20:55:50.084Z,2.65
2022-11-16T20:58:22.436Z,2.55
2022-11-16T21:00:49.775Z,2.50
2022-11-16T21:03:16.518Z,3.50
2022-11-16T21:05:50.919Z,2.80
2022-11-16T21:08:17.935Z,2.83
2022-11-16T21:10:44.732Z,3.05
2022-11-16T21:13:32.878Z,2.90
2022-11-16T21:16:01.926Z,2.80
2022-11-16T21:18:30.854Z,3.30
2022-11-16T21:21:02.010Z,3.25
2022-11-16T21:23:30.222Z,4.35
2022-11-16T21:26:02.656Z,3.35
2022-11-16T21:28:29.598Z,4.07
2022-11-16T21:31:00.761Z,2.90
2022-11-16T21:33:28.325Z,3.88
2022-11-16T21:35:55.441Z,3.33
2022-11-16T21:38:23.100Z,3.88
2022-11-16T21:40:50.083Z,4.13
2022-11-16T21:43:17.116Z,3.72
2022-11-16T21:45:45.055Z,4.13
2022-11-16T21:48:12.141Z,4.20
2022-11-16T21:50:39.051Z,3.85
2022-11-16T21:53:06.983Z,3.90
2022-11-16T21:55:34.390Z,4.15
2022-11-16T21:58:03.353Z,4.57
2022-11-16T22:00:29.988Z,4.50
2022-11-16T22:02:56.399Z,3.65
2022-11-16T22:05:41.177Z,4.13
2022-11-16T22:08:09.648Z,4.32
2022-11-16T22:10:36.058Z,3.38
2022-11-16T22:13:02.474Z,4.35
2022-11-16T22:15:29.381Z,4.13
2022-11-16T22:17:55.799Z,4.07
2022-11-16T22:20:22.380Z,4.18
2022-11-16T22:22:48.913Z,3.75
2022-11-16T22:25:15.804Z,5.00
2022-11-16T22:27:58.680Z,4.40
2022-11-16T22:30:28.641Z,4.07
2022-11-16T22:32:55.041Z,4.70
2022-11-16T22:35:21.432Z,4.65
2022-11-16T22:37:47.845Z,4.57
2022-11-16T22:40:17.748Z,4.82
2022-11-16T22:42:44.436Z,4.50
2022-11-16T22:45:10.886Z,4.22
2022-11-16T22:47:37.429Z,4.35
2022-11-16T22:50:04.134Z,4.68
2022-11-16T22:52:30.572Z,4.15
2022-11-16T22:54:57.031Z,4.68
2022-11-16T22:57:23.450Z,4.32
2022-11-16T22:59:49.844Z,5.60
2022-11-16T23:02:16.290Z,5.32
2022-11-16T23:04:42.698Z,4.30
2022-11-16T23:07:09.213Z,4.80
2022-11-16T23:09:35.705Z,4.50
2022-11-16T23:12:20.487Z,5.40
2022-11-16T23:15:09.809Z,4.75
2022-11-16T23:17:36.178Z,5.07
2022-11-16T23:20:21.587Z,5.68
2022-11-16T23:23:06.612Z,4.90
2022-11-16T23:25:51.863Z,5.80
2022-11-16T23:28:19.729Z,5.43
2022-11-16T23:30:46.161Z,4.78
2022-11-16T23:33:12.801Z,5.40
2022-11-16T23:35:39.215Z,5.70
2022-11-16T23:38:07.003Z,5.45
2022-11-16T23:40:38.735Z,4.95
2022-11-16T23:43:25.254Z,4.80
2022-11-16T23:45:51.542Z,5.65
2022-11-16T23:48:18.747Z,5.22
2022-11-16T23:50:46.181Z,4.65
2022-11-16T23:53:12.685Z,5.85
2022-11-16T23:55:39.738Z,4.65
2022-11-16T23:58:07.715Z,5.45
